createdAt,value
2022-09-01T00:01:31.054Z,4.20
2022-09-01T00:04:03.757Z,4.20
2022-09-01T00:06:33.538Z,3.40
2022-09-01T00:09:06.139Z,4.00
2022-09-01T00:11:35.875Z,3.00
2022-09-01T00:14:06.575Z,3.80
2022-09-01T00:16:45.335Z,5.50
2022-09-01T00:19:16.411Z,3.20
2022-09-01T00:21:45.558Z,3.10
2022-09-01T00:24:16.341Z,3.80
2022-09-01T00:26:45.561Z,3.90
2022-09-01T00:29:14.369Z,3.80
2022-09-01T00:31:43.365Z,5.10
2022-09-01T00:34:12.614Z,4.70
2022-09-01T00:36:41.326Z,5.70
2022-09-01T00:39:10.348Z,4.40
2022-09-01T00:41:44.291Z,9.40
2022-09-01T00:44:16.103Z,6.20
2022-09-01T00:46:50.986Z,7.60
2022-09-01T00:49:31.611Z,5.70
2022-09-01T00:52:07.991Z,9.10
2022-09-01T00:54:40.033Z,3.70
2022-09-01T00:59:43.422Z,3.60
2022-09-01T01:02:12.552Z,6.50
2022-09-01T01:04:43.107Z,6.00
2022-09-01T01:07:13.035Z,3.70
2022-09-01T01:09:43.767Z,5.70
2022-09-01T01:12:17.649Z,5.10
2022-09-01T01:14:49.533Z,4.20
2022-09-01T01:20:06.453Z,5.70
2022-09-01T01:23:02.593Z,6.90
2022-09-01T01:25:34.517Z,5.20
2022-09-01T01:28:22.286Z,5.40
2022-09-01T01:30:58.668Z,4.50
2022-09-01T01:33:30.737Z,4.00
2022-09-01T01:36:01.380Z,5.20
2022-09-01T01:38:30.691Z,5.20
2022-09-01T01:41:00.794Z,3.60
2022-09-01T01:43:30.023Z,7.20
2022-09-01T01:46:01.933Z,5.50
2022-09-01T01:48:38.859Z,4.30
2022-09-01T01:51:08.518Z,4.60
2022-09-01T01:53:37.445Z,5.20
2022-09-01T01:56:08.428Z,5.60
2022-09-01T01:58:39.960Z,10.00
2022-09-01T02:01:12.577Z,5.10
2022-09-01T02:03:41.462Z,7.50
2022-09-01T02:06:11.499Z,6.40
2022-09-01T02:08:41.212Z,4.40
2022-09-01T02:11:12.552Z,7.60
2022-09-01T02:13:41.155Z,7.20
2022-09-01T02:16:12.297Z,5.70
2022-09-01T02:18:47.451Z,5.60
2022-09-01T02:21:19.604Z,4.60
2022-09-01T02:23:59.782Z,6.30
2022-09-01T02:26:31.520Z,4.40
2022-09-01T02:29:04.087Z,7.90
2022-09-01T02:31:35.173Z,6.00
2022-09-01T02:34:03.991Z,6.00
2022-09-01T02:36:34.511Z,4.40
2022-09-01T02:39:03.412Z,4.30
2022-09-01T02:41:33.822Z,3.50
2022-09-01T02:44:03.423Z,4.50
2022-09-01T02:46:33.989Z,3.70
2022-09-01T02:49:04.873Z,5.00
2022-09-01T02:51:33.942Z,4.90
2022-09-01T02:54:03.380Z,8.50
2022-09-01T02:56:33.105Z,3.90
2022-09-01T02:59:02.501Z,4.00
2022-09-01T03:01:33.075Z,4.70
2022-09-01T03:04:05.069Z,4.90
2022-09-01T03:06:35.849Z,4.30
2022-09-01T03:09:06.995Z,5.40
2022-09-01T03:11:38.554Z,4.80
2022-09-01T03:14:08.058Z,9.00
2022-09-01T03:16:38.599Z,6.70
2022-09-01T03:19:10.493Z,5.10
2022-09-01T03:21:41.413Z,4.30
2022-09-01T03:24:14.503Z,5.60
2022-09-01T03:26:44.099Z,5.60
2022-09-01T03:29:13.156Z,5.90
2022-09-01T03:31:42.567Z,5.10
2022-09-01T03:34:11.971Z,4.70
2022-09-01T03:36:49.576Z,7.50
2022-09-01T03:39:19.864Z,6.30
2022-09-01T03:41:48.624Z,4.80
2022-09-01T03:44:17.222Z,3.50
2022-09-01T03:46:46.636Z,4.50
2022-09-01T03:49:24.419Z,4.10
2022-09-01T03:51:53.397Z,9.20
2022-09-01T03:54:24.285Z,5.30
2022-09-01T03:56:54.631Z,6.00
2022-09-01T03:59:25.072Z,6.10
2022-09-01T04:01:54.043Z,5.90
2022-09-01T04:04:23.288Z,7.80
2022-09-01T04:06:51.922Z,5.10
2022-09-01T04:09:20.498Z,5.30
2022-09-01T04:11:52.459Z,6.00
2022-09-01T04:14:21.546Z,4.40
2022-09-01T04:17:09.720Z,4.90
2022-09-01T04:19:38.899Z,5.10
2022-09-01T04:22:07.710Z,6.30
2022-09-01T04:24:45.235Z,5.00
2022-09-01T04:27:17.386Z,4.10
2022-09-01T04:29:46.349Z,6.30
2022-09-01T04:32:15.231Z,6.10
2022-09-01T04:34:46.672Z,3.30
2022-09-01T04:37:20.597Z,7.90
2022-09-01T04:39:56.465Z,5.40
2022-09-01T04:42:28.546Z,4.50
2022-09-01T04:44:59.357Z,5.20
2022-09-01T04:47:29.747Z,4.20
2022-09-01T04:50:13.124Z,4.70
2022-09-01T04:52:44.180Z,4.50
2022-09-01T04:55:21.519Z,3.00
2022-09-01T04:57:50.451Z,6.70
2022-09-01T05:00:24.554Z,4.30
2022-09-01T05:03:03.801Z,4.70
2022-09-01T05:05:50.731Z,3.20
2022-09-01T05:08:23.938Z,4.10
2022-09-01T05:10:56.078Z,4.90
2022-09-01T05:13:47.437Z,6.80
2022-09-01T05:16:24.601Z,6.70
2022-09-01T05:18:57.338Z,4.40
2022-09-01T05:21:29.374Z,3.30
2022-09-01T05:24:00.757Z,5.00
2022-09-01T05:26:31.199Z,4.70
2022-09-01T05:29:03.482Z,4.80
2022-09-01T05:31:37.095Z,5.60
2022-09-01T05:34:09.125Z,6.80
2022-09-01T05:36:43.178Z,5.60
2022-09-01T05:39:11.932Z,3.80
2022-09-01T05:41:41.200Z,4.60
2022-09-01T05:44:14.992Z,4.30
2022-09-01T05:46:44.347Z,3.90
2022-09-01T05:49:16.370Z,4.90
2022-09-01T05:51:50.382Z,4.50
2022-09-01T05:54:24.773Z,6.40
2022-09-01T05:56:55.056Z,4.60
2022-09-01T05:59:30.905Z,10.30
2022-09-01T06:02:02.620Z,6.00
2022-09-01T06:04:32.537Z,7.80
2022-09-01T06:07:11.749Z,8.80
2022-09-01T06:09:47.722Z,5.20
2022-09-01T06:12:21.099Z,5.10
2022-09-01T06:14:52.386Z,3.60
2022-09-01T06:17:24.320Z,5.00
2022-09-01T06:22:23.408Z,4.60
2022-09-01T06:24:57.929Z,4.90
2022-09-01T06:27:30.168Z,3.70
2022-09-01T06:29:59.245Z,3.60
2022-09-01T06:32:28.565Z,5.10
2022-09-01T06:34:59.831Z,3.00
2022-09-01T06:37:29.830Z,3.10
2022-09-01T06:40:00.372Z,2.60
2022-09-01T06:42:29.124Z,6.10
2022-09-01T06:45:00.834Z,4.30
2022-09-01T06:47:29.643Z,2.70
2022-09-01T06:49:58.707Z,2.80
2022-09-01T06:52:28.214Z,3.60
2022-09-01T06:54:57.727Z,3.30
2022-09-01T07:00:18.859Z,3.70
2022-09-01T07:02:53.088Z,4.40
2022-09-01T07:06:00.888Z,4.50
2022-09-01T07:14:27.541Z,3.00
2022-09-01T07:19:48.929Z,4.40
2022-09-01T07:25:12.131Z,1.60
2022-09-01T07:27:52.352Z,2.60
2022-09-01T07:30:24.985Z,2.40
2022-09-01T07:32:54.923Z,5.60
2022-09-01T07:35:25.028Z,2.50
2022-09-01T07:42:56.296Z,3.50
2022-09-01T07:43:50.762Z,2.20
2022-09-01T07:46:38.046Z,1.80
2022-09-01T07:51:59.793Z,3.00
2022-09-01T07:54:29.698Z,3.50
2022-09-01T07:56:59.073Z,2.80
2022-09-01T07:59:28.888Z,4.30
2022-09-01T08:02:05.447Z,2.00
2022-09-01T08:04:34.337Z,3.80
2022-09-01T08:07:02.984Z,1.80
2022-09-01T08:09:37.212Z,2.90
2022-09-01T08:12:08.764Z,1.30
2022-09-01T08:14:43.841Z,2.40
2022-09-01T08:20:07.670Z,2.80
2022-09-01T08:23:00.540Z,1.60
2022-09-01T08:25:35.275Z,3.70
2022-09-01T08:28:05.225Z,1.60
2022-09-01T08:30:35.803Z,2.40
2022-09-01T08:33:12.430Z,1.40
2022-09-01T08:35:48.117Z,1.30
2022-09-01T08:38:17.698Z,3.00
2022-09-01T08:40:56.406Z,1.50
2022-09-01T08:43:38.827Z,2.30
2022-09-01T08:46:13.890Z,1.20
2022-09-01T08:51:51.965Z,2.00
2022-09-01T08:54:29.846Z,2.40
2022-09-01T08:57:05.887Z,2.80
2022-09-01T08:59:53.578Z,4.70
2022-09-01T09:02:45.854Z,3.00
2022-09-01T09:05:29.759Z,1.40
2022-09-01T09:08:16.034Z,2.10
2022-09-01T09:10:55.774Z,2.60
2022-09-01T09:13:36.065Z,1.40
2022-09-01T09:16:09.805Z,2.70
2022-09-01T09:18:54.665Z,1.60
2022-09-01T09:21:30.059Z,2.80
2022-09-01T09:24:06.752Z,2.20
2022-09-01T09:26:42.738Z,1.60
2022-09-01T09:29:11.642Z,2.20
2022-09-01T09:31:49.611Z,1.70
2022-09-01T09:34:32.071Z,1.20
2022-09-01T09:37:17.092Z,1.90
2022-09-01T09:39:56.885Z,2.50
2022-09-01T09:42:35.124Z,0.80
2022-09-01T09:45:16.095Z,0.90
2022-09-01T09:47:46.311Z,1.60
2022-09-01T09:50:23.286Z,3.10
2022-09-01T09:52:55.114Z,4.00
2022-09-01T09:55:27.023Z,3.20
2022-09-01T09:57:58.856Z,2.30
2022-09-01T10:00:29.793Z,0.60
2022-09-01T10:03:07.777Z,1.00
2022-09-01T10:05:43.568Z,1.00
2022-09-01T10:08:15.937Z,1.30
2022-09-01T10:10:56.382Z,0.90
2022-09-01T10:13:28.971Z,2.30
2022-09-01T10:15:59.825Z,2.10
2022-09-01T10:18:35.074Z,0.90
2022-09-01T10:21:08.403Z,1.00
2022-09-01T10:23:38.742Z,1.80
2022-09-01T10:26:13.655Z,0.50
2022-09-01T10:28:51.014Z,0.60
2022-09-01T10:31:21.398Z,0.40
2022-09-01T10:33:50.840Z,0.90
2022-09-01T10:36:24.633Z,2.60
2022-09-01T10:38:59.972Z,0.80
2022-09-01T10:41:59.478Z,0.80
2022-09-01T10:44:33.458Z,0.80
2022-09-01T10:47:13.427Z,0.90
2022-09-01T10:49:59.175Z,0.70
2022-09-01T10:53:01.494Z,1.30
2022-09-01T10:55:33.859Z,1.50
2022-09-01T11:01:15.644Z,1.10
2022-09-01T11:03:56.688Z,0.70
2022-09-01T11:09:45.498Z,1.20
2022-09-01T11:12:38.598Z,2.30
2022-09-01T11:15:36.891Z,1.10
2022-09-01T11:18:11.572Z,2.20
2022-09-01T11:20:45.506Z,1.70
2022-09-01T11:23:23.648Z,1.00
2022-09-01T11:28:46.027Z,1.20
2022-09-01T11:31:22.200Z,0.80
2022-09-01T11:33:57.758Z,1.30
2022-09-01T11:36:31.208Z,0.70
2022-09-01T11:39:07.261Z,0.80
2022-09-01T11:41:54.503Z,2.20
2022-09-01T11:44:27.756Z,1.20
2022-09-01T11:47:02.537Z,1.80
2022-09-01T11:49:34.646Z,1.40
2022-09-01T11:52:05.059Z,4.30
2022-09-01T11:54:41.370Z,0.50
2022-09-01T11:57:22.529Z,1.80
2022-09-01T11:59:51.453Z,1.10
2022-09-01T12:02:24.442Z,0.70
2022-09-01T12:04:55.632Z,1.20
2022-09-01T12:07:30.029Z,0.90
2022-09-01T12:09:58.741Z,4.20
2022-09-01T12:12:31.211Z,1.80
2022-09-01T12:15:07.945Z,2.80
2022-09-01T12:17:36.890Z,1.70
2022-09-01T12:20:29.487Z,0.80
2022-09-01T12:23:00.159Z,0.80
2022-09-01T12:25:31.576Z,1.40
2022-09-01T12:28:01.735Z,0.90
2022-09-01T12:30:34.757Z,1.40
2022-09-01T12:36:19.339Z,1.60
2022-09-01T12:38:48.301Z,0.50
2022-09-01T12:41:34.300Z,4.80
2022-09-01T12:44:30.004Z,0.70
2022-09-01T12:47:01.667Z,1.20
2022-09-01T12:49:47.915Z,3.10
2022-09-01T12:52:25.237Z,1.10
2022-09-01T12:55:46.970Z,1.50
2022-09-01T12:58:04.622Z,0.50
2022-09-01T13:00:35.178Z,0.40
2022-09-01T13:03:13.544Z,0.60
2022-09-01T13:05:43.695Z,2.20
2022-09-01T13:08:13.902Z,0.60
2022-09-01T13:10:45.048Z,0.40
2022-09-01T13:13:15.229Z,2.00
2022-09-01T13:15:47.469Z,0.60
2022-09-01T13:18:16.770Z,2.80
2022-09-01T13:20:45.547Z,1.40
2022-09-01T13:23:14.992Z,2.20
2022-09-01T13:25:43.935Z,1.80
2022-09-01T13:28:13.586Z,2.40
2022-09-01T13:30:44.681Z,1.70
2022-09-01T13:33:20.902Z,1.70
2022-09-01T13:35:51.819Z,1.50
2022-09-01T13:38:20.843Z,0.40
2022-09-01T13:40:51.039Z,1.30
2022-09-01T13:43:22.340Z,2.00
2022-09-01T13:45:51.625Z,0.50
2022-09-01T13:48:21.763Z,0.30
2022-09-01T13:51:22.334Z,0.70
2022-09-01T13:53:41.247Z,1.00
2022-09-01T13:56:09.792Z,1.40
2022-09-01T13:58:38.410Z,2.30
2022-09-01T14:01:07.400Z,0.50
2022-09-01T14:03:37.526Z,1.10
2022-09-01T14:06:07.799Z,2.20
2022-09-01T14:08:36.503Z,0.60
2022-09-01T14:11:05.210Z,0.50
2022-09-01T14:13:34.923Z,1.50
2022-09-01T14:16:11.207Z,0.40
2022-09-01T14:18:40.316Z,1.00
2022-09-01T14:21:12.435Z,1.40
2022-09-01T14:23:40.946Z,0.70
2022-09-01T14:26:11.327Z,0.90
2022-09-01T14:28:44.959Z,0.80
2022-09-01T14:31:15.672Z,1.40
2022-09-01T14:33:44.660Z,0.80
2022-09-01T14:36:19.463Z,1.30
2022-09-01T14:38:48.874Z,1.70
2022-09-01T14:41:21.273Z,0.90
2022-09-01T14:43:50.060Z,1.20
2022-09-01T14:46:20.361Z,2.50
2022-09-01T14:48:50.118Z,0.50
2022-09-01T14:51:23.665Z,0.70
2022-09-01T14:53:53.697Z,1.00
2022-09-01T14:56:23.117Z,2.30
2022-09-01T14:58:58.193Z,0.50
2022-09-01T15:01:34.647Z,1.20
2022-09-01T15:04:04.326Z,4.00
2022-09-01T15:06:33.344Z,0.80
2022-09-01T15:09:02.842Z,1.20
2022-09-01T15:11:31.452Z,0.50
2022-09-01T15:14:00.171Z,0.80
2022-09-01T15:16:28.852Z,1.60
2022-09-01T15:18:57.456Z,0.70
2022-09-01T15:21:28.100Z,0.60
2022-09-01T15:23:56.826Z,2.40
2022-09-01T15:26:26.516Z,1.10
2022-09-01T15:28:56.754Z,0.60
2022-09-01T15:31:32.562Z,1.50
2022-09-01T15:34:04.015Z,2.10
2022-09-01T15:36:39.320Z,0.90
2022-09-01T15:39:08.795Z,0.50
2022-09-01T15:41:38.703Z,0.90
2022-09-01T15:44:08.499Z,1.20
2022-09-01T15:46:39.968Z,0.40
2022-09-01T15:49:10.178Z,1.00
2022-09-01T15:51:40.495Z,0.40
2022-09-01T15:54:11.389Z,2.90
2022-09-01T15:56:40.704Z,0.90
2022-09-01T15:59:10.632Z,0.40
2022-09-01T16:01:41.768Z,0.60
2022-09-01T16:04:18.138Z,0.30
2022-09-01T16:06:50.363Z,1.50
2022-09-01T16:09:20.648Z,2.10
2022-09-01T16:11:49.354Z,1.30
2022-09-01T16:14:20.096Z,0.40
2022-09-01T16:16:57.757Z,1.40
2022-09-01T16:19:37.552Z,0.50
2022-09-01T16:22:13.267Z,0.30
2022-09-01T16:24:44.613Z,0.60
2022-09-01T16:27:16.766Z,0.30
2022-09-01T16:29:49.065Z,1.60
2022-09-01T16:32:20.855Z,0.30
2022-09-01T16:37:34.508Z,0.70
2022-09-01T16:40:17.033Z,1.40
2022-09-01T16:42:57.875Z,1.30
2022-09-01T16:45:42.871Z,3.00
2022-09-01T16:48:22.762Z,0.80
2022-09-01T16:51:00.765Z,0.40
2022-09-01T16:53:44.394Z,2.90
2022-09-01T16:56:21.458Z,0.40
2022-09-01T16:58:59.321Z,0.30
2022-09-01T17:01:42.365Z,1.00
2022-09-01T17:04:26.754Z,2.50
2022-09-01T17:07:02.353Z,1.40
2022-09-01T17:09:41.244Z,3.20
2022-09-01T17:12:27.833Z,1.10
2022-09-01T17:14:59.091Z,1.90
2022-09-01T17:17:37.752Z,2.10
2022-09-01T17:20:12.427Z,0.80
2022-09-01T17:22:46.131Z,0.80
2022-09-01T17:25:28.875Z,0.60
2022-09-01T17:28:07.994Z,1.30
2022-09-01T17:30:46.713Z,4.40
2022-09-01T17:33:33.146Z,0.80
2022-09-01T17:36:20.747Z,1.80
2022-09-01T17:39:09.539Z,1.60
2022-09-01T17:41:57.252Z,0.40
2022-09-01T17:44:43.510Z,1.90
2022-09-01T17:47:24.201Z,1.00
2022-09-01T17:50:07.543Z,0.70
2022-09-01T17:52:52.655Z,2.20
2022-09-01T17:55:47.557Z,3.30
2022-09-01T17:58:57.987Z,1.80
2022-09-01T18:01:49.125Z,1.10
2022-09-01T18:05:00.191Z,1.20
2022-09-01T18:08:03.418Z,2.20
2022-09-01T18:10:47.092Z,3.80
2022-09-01T18:13:51.857Z,4.50
2022-09-01T18:16:18.249Z,9.70
2022-09-01T18:18:50.929Z,6.60
2022-09-01T18:21:26.073Z,4.90
2022-09-01T18:24:15.551Z,2.50
2022-09-01T18:26:52.078Z,2.40
2022-09-01T18:29:28.384Z,3.60
2022-09-01T18:32:24.669Z,3.20
2022-09-01T18:35:11.258Z,2.20
2022-09-01T18:37:54.453Z,0.90
2022-09-01T18:40:36.575Z,1.10
2022-09-01T18:43:21.403Z,1.20
2022-09-01T18:46:00.850Z,4.60
2022-09-01T18:49:01.079Z,1.40
2022-09-01T18:51:48.175Z,1.90
2022-09-01T18:56:59.979Z,1.30
2022-09-01T19:00:08.856Z,1.10
2022-09-01T19:03:04.449Z,1.20
2022-09-01T19:06:05.505Z,2.30
2022-09-01T19:08:47.706Z,1.30
2022-09-01T19:11:26.839Z,1.80
2022-09-01T19:14:05.903Z,2.40
2022-09-01T19:16:48.847Z,2.50
2022-09-01T19:19:29.095Z,2.20
2022-09-01T19:21:58.434Z,1.60
2022-09-01T19:24:33.620Z,3.50
2022-09-01T19:27:10.797Z,1.10
2022-09-01T19:29:47.000Z,2.30
2022-09-01T19:32:19.527Z,2.30
2022-09-01T19:34:53.390Z,4.80
2022-09-01T19:37:23.493Z,3.50
2022-09-01T19:39:54.411Z,3.60
2022-09-01T19:42:31.548Z,3.10
2022-09-01T19:45:08.955Z,4.00
2022-09-01T19:47:45.216Z,1.90
2022-09-01T19:50:20.540Z,1.60
2022-09-01T19:52:56.012Z,1.60
2022-09-01T19:55:31.335Z,6.50
2022-09-01T19:58:05.340Z,2.90
2022-09-01T20:00:51.391Z,1.60
2022-09-01T20:03:26.648Z,2.10
2022-09-01T20:05:59.717Z,3.70
2022-09-01T20:08:34.122Z,1.90
2022-09-01T20:11:08.094Z,2.40
2022-09-01T20:13:53.521Z,3.90
2022-09-01T20:16:29.907Z,1.70
2022-09-01T20:19:03.290Z,1.80
2022-09-01T20:21:39.416Z,3.70
2022-09-01T20:24:16.593Z,2.40
2022-09-01T20:26:49.339Z,1.30
2022-09-01T20:29:26.048Z,1.70
2022-09-01T20:31:58.448Z,2.30
2022-09-01T20:34:34.704Z,1.30
2022-09-01T20:37:08.674Z,7.20
2022-09-01T20:40:00.463Z,7.20
2022-09-01T20:42:38.795Z,4.60
2022-09-01T20:45:12.465Z,5.50
2022-09-01T20:47:45.017Z,5.00
2022-09-01T20:50:14.611Z,5.60
2022-09-01T20:53:02.061Z,6.30
2022-09-01T20:55:37.399Z,2.70
2022-09-01T20:58:21.602Z,3.10
2022-09-01T21:00:58.188Z,5.10
2022-09-01T21:03:37.762Z,3.30
2022-09-01T21:06:15.766Z,9.00
2022-09-01T21:08:49.020Z,6.20
2022-09-01T21:11:33.799Z,4.00
2022-09-01T21:14:15.480Z,3.30
2022-09-01T21:16:55.993Z,5.60
2022-09-01T21:19:31.852Z,2.60
2022-09-01T21:22:06.788Z,4.90
2022-09-01T21:24:35.875Z,5.70
2022-09-01T21:27:10.644Z,5.70
2022-09-01T21:29:55.220Z,3.60
2022-09-01T21:32:25.594Z,8.40
2022-09-01T21:34:55.704Z,4.90
2022-09-01T21:37:25.887Z,5.00
2022-09-01T21:39:55.609Z,3.40
2022-09-01T21:42:33.114Z,2.60
2022-09-01T21:45:04.503Z,5.90
2022-09-01T21:47:33.791Z,2.60
2022-09-01T21:50:02.483Z,6.30
2022-09-01T21:52:31.157Z,3.00
2022-09-01T21:54:59.918Z,3.80
2022-09-01T21:57:28.671Z,3.10
2022-09-01T21:59:57.484Z,2.80
2022-09-01T22:02:28.331Z,3.50
2022-09-01T22:04:57.457Z,3.00
2022-09-01T22:07:26.107Z,2.90
2022-09-01T22:09:57.116Z,3.70
2022-09-01T22:12:25.970Z,2.90
2022-09-01T22:14:54.924Z,2.70
2022-09-01T22:17:23.843Z,2.40
2022-09-01T22:19:52.851Z,4.90
2022-09-01T22:22:21.673Z,5.50
2022-09-01T22:24:50.208Z,3.60
2022-09-01T22:27:18.877Z,4.00
2022-09-01T22:29:47.619Z,2.70
2022-09-01T22:32:16.307Z,4.20
2022-09-01T22:34:45.202Z,3.80
2022-09-01T22:37:13.857Z,3.00
2022-09-01T22:39:42.539Z,2.50
2022-09-01T22:42:11.080Z,3.60
2022-09-01T22:44:39.912Z,5.40
2022-09-01T22:47:08.724Z,2.50
2022-09-01T22:49:37.520Z,3.20
2022-09-01T22:52:06.276Z,2.80
2022-09-01T22:54:35.215Z,3.20
2022-09-01T22:57:04.723Z,4.20
2022-09-01T22:59:53.013Z,5.50
2022-09-01T23:02:22.868Z,3.40
2022-09-01T23:04:52.211Z,3.60
2022-09-01T23:07:20.825Z,2.70
2022-09-01T23:09:49.603Z,5.20
2022-09-01T23:12:18.311Z,5.60
2022-09-01T23:14:46.872Z,2.10
2022-09-01T23:17:15.439Z,2.30
2022-09-01T23:19:44.063Z,3.60
2022-09-01T23:22:12.966Z,4.40
2022-09-01T23:24:41.466Z,3.50
2022-09-01T23:27:10.268Z,3.50
2022-09-01T23:29:39.789Z,4.30
2022-09-01T23:32:08.410Z,4.60
2022-09-01T23:34:38.176Z,4.10
2022-09-01T23:37:06.879Z,3.20
2022-09-01T23:39:35.812Z,2.90
2022-09-01T23:42:05.317Z,2.50
2022-09-01T23:44:33.923Z,2.90
2022-09-01T23:47:02.995Z,3.30
2022-09-01T23:49:31.660Z,3.70
2022-09-01T23:52:00.213Z,3.10
2022-09-01T23:54:28.892Z,8.10
2022-09-01T23:56:57.785Z,5.50
2022-09-01T23:59:27.961Z,4.40
